Startpagina
METAR-TAF:

METAR-TAF

Vliegvelden :

Valencia, Venezuela

breedte: 10-10N, lengte: 067-56W, hoogte: 430 m

Actueel weer

Dit bericht is 33 minuten geleden gemaakt, om 03:02 UTC
Wind 5 kt uit het noordoosten
Temperatuur 27°C
Vochtigheid 66%
Druk 1014 hPa

METAR: SVVA 190302Z AUTO 04005KT NCD 27/20 Q1014

Tijdstip: 23:35 (03:35 UTC)

Verwachting

Dit bericht is 4 uur en het 35 minuten geleden gemaakt, om 23:00 UTC
Verwachting geldig van 19 om 00 UTC tot 20 om 00 UTC
Wind 5 kt uit het noorden
Weinig wolken op 1600 ft
Verspreide wolken op 10000 ft
Wijzigt naar
van 19 om 02 UTC tot 19 om 06 UTC
Wind kt uit het noorden
Verspreide wolken op 1600 ft
Wijzigt naar
van 19 om 07 UTC tot 19 om 11 UTC
Wind 5 kt uit het oostnoordoosten
Gebroken wolken op 1600 ft

TAF: SVVA 182300Z 1900/2000 36005KT FEW016 SCT100 TX34/1820 TN24/1909 BECMG 1902/1906 00000KT SCT016 BECMG 1907/1911 07005KT BKN016

Waarnemingen en weersverwachtingen van meer dan 4000 vliegvelden (METAR en TAF).

De beschikbare stations zijn de gele en rode punten op de kaart.

Ga met uw muis naar het station om de naam te zien.

Klik dan om waarnemingen en weersverwachtingen te zien.

kaart wijzigen: klik op de groene knoppen met een zwart kruis om in te zoomen, op de groene knop met een streepje om uit te zoomen of op de groene pijlen voor aangrenzende kaarten.


METAR-TAF: